sensor_id;sensor_type;location;lat;lon;timestamp;temperature;humidity
2012;DHT22;1009;51.436;6.972;2023-04-16T00:00:47;8.00;99.90
2012;DHT22;1009;51.436;6.972;2023-04-16T00:03:14;8.00;99.90
2012;DHT22;1009;51.436;6.972;2023-04-16T00:05:41;8.10;99.90
2012;DHT22;1009;51.436;6.972;2023-04-16T00:08:08;8.10;99.90
2012;DHT22;1009;51.436;6.972;2023-04-16T00:10:36;8.10;99.90
2012;DHT22;1009;51.436;6.972;2023-04-16T00:13:03;8.10;99.90
2012;DHT22;1009;51.436;6.972;2023-04-16T00:15:29;8.20;99.90
2012;DHT22;1009;51.436;6.972;2023-04-16T00:17:56;8.10;99.90
2012;DHT22;1009;51.436;6.972;2023-04-16T00:20:23;8.10;99.90
2012;DHT22;1009;51.436;6.972;2023-04-16T00:22:50;8.10;99.90
2012;DHT22;1009;51.436;6.972;2023-04-16T00:25:16;8.20;99.90
2012;DHT22;1009;51.436;6.972;2023-04-16T00:27:44;8.10;99.90
2012;DHT22;1009;51.436;6.972;2023-04-16T00:30:12;8.10;99.90
2012;DHT22;1009;51.436;6.972;2023-04-16T00:32:38;8.10;99.90
2012;DHT22;1009;51.436;6.972;2023-04-16T00:35:06;8.10;99.90
2012;DHT22;1009;51.436;6.972;2023-04-16T00:37:33;8.20;99.90
2012;DHT22;1009;51.436;6.972;2023-04-16T00:40:00;8.20;99.90
2012;DHT22;1009;51.436;6.972;2023-04-16T00:42:26;8.30;99.90
2012;DHT22;1009;51.436;6.972;2023-04-16T00:44:54;8.40;99.90
2012;DHT22;1009;51.436;6.972;2023-04-16T00:47:21;8.30;99.90
2012;DHT22;1009;51.436;6.972;2023-04-16T00:49:48;8.20;99.90
2012;DHT22;1009;51.436;6.972;2023-04-16T00:52:15;8.20;99.90
2012;DHT22;1009;51.436;6.972;2023-04-16T00:54:42;8.30;99.90
2012;DHT22;1009;51.436;6.972;2023-04-16T00:57:09;8.30;99.90
2012;DHT22;1009;51.436;6.972;2023-04-16T00:59:36;8.30;99.90
2012;DHT22;1009;51.436;6.972;2023-04-16T01:02:04;8.30;99.90
2012;DHT22;1009;51.436;6.972;2023-04-16T01:04:31;8.30;99.90
2012;DHT22;1009;51.436;6.972;2023-04-16T01:06:58;8.40;99.90
2012;DHT22;1009;51.436;6.972;2023-04-16T01:09:25;8.40;99.90
2012;DHT22;1009;51.436;6.972;2023-04-16T01:11:52;8.40;99.90
2012;DHT22;1009;51.436;6.972;2023-04-16T01:14:18;8.40;99.90
2012;DHT22;1009;51.436;6.972;2023-04-16T01:16:45;8.40;99.90
2012;DHT22;1009;51.436;6.972;2023-04-16T01:19:13;8.30;99.90
2012;DHT22;1009;51.436;6.972;2023-04-16T01:21:41;8.30;99.90
2012;DHT22;1009;51.436;6.972;2023-04-16T01:24:08;8.40;99.90
2012;DHT22;1009;51.436;6.972;2023-04-16T01:26:35;8.40;99.90
2012;DHT22;1009;51.436;6.972;2023-04-16T01:29:01;8.40;99.90
2012;DHT22;1009;51.436;6.972;2023-04-16T01:31:28;8.30;99.90
2012;DHT22;1009;51.436;6.972;2023-04-16T01:33:55;8.40;99.90
2012;DHT22;1009;51.436;6.972;2023-04-16T01:36:22;8.40;99.90
2012;DHT22;1009;51.436;6.972;2023-04-16T01:38:50;8.40;99.90
2012;DHT22;1009;51.436;6.972;2023-04-16T01:41:17;8.40;99.90
2012;DHT22;1009;51.436;6.972;2023-04-16T01:43:43;8.40;99.90
2012;DHT22;1009;51.436;6.972;2023-04-16T01:46:12;8.40;99.90
2012;DHT22;1009;51.436;6.972;2023-04-16T01:48:40;8.40;99.90
2012;DHT22;1009;51.436;6.972;2023-04-16T01:51:06;8.40;99.90
2012;DHT22;1009;51.436;6.972;2023-04-16T01:53:34;8.30;99.90
2012;DHT22;1009;51.436;6.972;2023-04-16T01:56:02;8.30;99.90
2012;DHT22;1009;51.436;6.972;2023-04-16T01:58:30;8.30;99.90
2012;DHT22;1009;51.436;6.972;2023-04-16T02:00:57;8.30;99.90
2012;DHT22;1009;51.436;6.972;2023-04-16T02:03:24;8.40;99.90
2012;DHT22;1009;51.436;6.972;2023-04-16T02:05:51;8.30;99.90
2012;DHT22;1009;51.436;6.972;2023-04-16T02:08:17;8.30;99.90
2012;DHT22;1009;51.436;6.972;2023-04-16T02:10:45;8.40;99.90
2012;DHT22;1009;51.436;6.972;2023-04-16T02:13:14;8.40;99.90
2012;DHT22;1009;51.436;6.972;2023-04-16T02:15:44;8.40;99.90
2012;DHT22;1009;51.436;6.972;2023-04-16T02:18:11;8.50;99.90
2012;DHT22;1009;51.436;6.972;2023-04-16T02:20:39;8.50;99.90
2012;DHT22;1009;51.436;6.972;2023-04-16T02:23:07;8.50;99.90
2012;DHT22;1009;51.436;6.972;2023-04-16T02:25:37;8.50;99.90
2012;DHT22;1009;51.436;6.972;2023-04-16T02:28:05;8.50;99.90
2012;DHT22;1009;51.436;6.972;2023-04-16T02:30:33;8.50;99.90
2012;DHT22;1009;51.436;6.972;2023-04-16T02:33:00;8.40;99.90
2012;DHT22;1009;51.436;6.972;2023-04-16T02:35:29;8.40;99.90
2012;DHT22;1009;51.436;6.972;2023-04-16T02:37:55;8.50;99.90
2012;DHT22;1009;51.436;6.972;2023-04-16T02:40:23;8.50;99.90
2012;DHT22;1009;51.436;6.972;2023-04-16T02:42:50;8.50;99.90
2012;DHT22;1009;51.436;6.972;2023-04-16T02:45:17;8.50;99.90
2012;DHT22;1009;51.436;6.972;2023-04-16T02:47:45;8.50;99.90
2012;DHT22;1009;51.436;6.972;2023-04-16T02:50:12;8.50;99.90
2012;DHT22;1009;51.436;6.972;2023-04-16T02:52:39;8.50;99.90
2012;DHT22;1009;51.436;6.972;2023-04-16T02:55:06;8.50;99.90
2012;DHT22;1009;51.436;6.972;2023-04-16T02:57:33;8.50;99.90
2012;DHT22;1009;51.436;6.972;2023-04-16T03:00:00;8.50;99.90
2012;DHT22;1009;51.436;6.972;2023-04-16T03:02:26;8.50;99.90
2012;DHT22;1009;51.436;6.972;2023-04-16T03:04:54;8.40;99.90
2012;DHT22;1009;51.436;6.972;2023-04-16T03:07:21;8.40;99.90
2012;DHT22;1009;51.436;6.972;2023-04-16T03:09:48;8.40;99.90
2012;DHT22;1009;51.436;6.972;2023-04-16T03:12:15;8.40;99.90
2012;DHT22;1009;51.436;6.972;2023-04-16T03:14:41;8.50;99.90
2012;DHT22;1009;51.436;6.972;2023-04-16T03:17:08;8.50;99.90
2012;DHT22;1009;51.436;6.972;2023-04-16T03:19:35;8.50;99.90
2012;DHT22;1009;51.436;6.972;2023-04-16T03:22:03;8.50;99.90
2012;DHT22;1009;51.436;6.972;2023-04-16T03:24:30;8.50;99.90
2012;DHT22;1009;51.436;6.972;2023-04-16T03:26:56;8.50;99.90
2012;DHT22;1009;51.436;6.972;2023-04-16T03:29:24;8.40;99.90
2012;DHT22;1009;51.436;6.972;2023-04-16T03:31:51;8.40;99.90
2012;DHT22;1009;51.436;6.972;2023-04-16T03:34:17;8.40;99.90
2012;DHT22;1009;51.436;6.972;2023-04-16T03:36:44;8.50;99.90
2012;DHT22;1009;51.436;6.972;2023-04-16T03:39:12;8.40;99.90
2012;DHT22;1009;51.436;6.972;2023-04-16T03:41:39;8.40;99.90
2012;DHT22;1009;51.436;6.972;2023-04-16T03:44:06;8.40;99.90
2012;DHT22;1009;51.436;6.972;2023-04-16T03:46:32;8.40;99.90
2012;DHT22;1009;51.436;6.972;2023-04-16T03:48:59;8.40;99.90
2012;DHT22;1009;51.436;6.972;2023-04-16T03:51:26;8.40;99.90
2012;DHT22;1009;51.436;6.972;2023-04-16T03:53:53;8.40;99.90
2012;DHT22;1009;51.436;6.972;2023-04-16T03:56:21;8.40;99.90
2012;DHT22;1009;51.436;6.972;2023-04-16T03:58:48;8.40;99.90
2012;DHT22;1009;51.436;6.972;2023-04-16T04:01:14;8.40;99.90
2012;DHT22;1009;51.436;6.972;2023-04-16T04:03:41;8.40;99.90
2012;DHT22;1009;51.436;6.972;2023-04-16T04:06:08;8.40;99.90
2012;DHT22;1009;51.436;6.972;2023-04-16T04:08:35;8.50;99.90
2012;DHT22;1009;51.436;6.972;2023-04-16T04:11:02;8.50;99.90
2012;DHT22;1009;51.436;6.972;2023-04-16T04:13:30;8.50;99.90
2012;DHT22;1009;51.436;6.972;2023-04-16T04:15:56;8.50;99.90
2012;DHT22;1009;51.436;6.972;2023-04-16T04:18:23;8.50;99.90
2012;DHT22;1009;51.436;6.972;2023-04-16T04:20:50;8.50;99.90
2012;DHT22;1009;51.436;6.972;2023-04-16T04:23:17;8.50;99.90
2012;DHT22;1009;51.436;6.972;2023-04-16T04:25:44;8.50;99.90
2012;DHT22;1009;51.436;6.972;2023-04-16T04:28:10;8.50;99.90
2012;DHT22;1009;51.436;6.972;2023-04-16T04:30:38;8.50;99.90
2012;DHT22;1009;51.436;6.972;2023-04-16T04:33:05;8.50;99.90
2012;DHT22;1009;51.436;6.972;2023-04-16T04:35:32;8.50;99.90
2012;DHT22;1009;51.436;6.972;2023-04-16T04:37:59;8.60;99.90
2012;DHT22;1009;51.436;6.972;2023-04-16T04:40:26;8.60;99.90
2012;DHT22;1009;51.436;6.972;2023-04-16T04:42:53;8.60;99.90
2012;DHT22;1009;51.436;6.972;2023-04-16T04:45:20;8.70;99.90
2012;DHT22;1009;51.436;6.972;2023-04-16T04:47:51;8.60;99.90
2012;DHT22;1009;51.436;6.972;2023-04-16T04:50:17;8.60;99.90
2012;DHT22;1009;51.436;6.972;2023-04-16T04:52:44;8.60;99.90
2012;DHT22;1009;51.436;6.972;2023-04-16T04:55:11;8.60;99.90
2012;DHT22;1009;51.436;6.972;2023-04-16T04:57:40;8.60;99.90
2012;DHT22;1009;51.436;6.972;2023-04-16T05:00:07;8.60;99.90
2012;DHT22;1009;51.436;6.972;2023-04-16T05:02:34;8.60;99.90
2012;DHT22;1009;51.436;6.972;2023-04-16T05:05:02;8.60;99.90
2012;DHT22;1009;51.436;6.972;2023-04-16T05:07:29;8.60;99.90
2012;DHT22;1009;51.436;6.972;2023-04-16T05:09:56;8.60;99.90
2012;DHT22;1009;51.436;6.972;2023-04-16T05:12:23;8.60;99.90
2012;DHT22;1009;51.436;6.972;2023-04-16T05:14:50;8.60;99.90
2012;DHT22;1009;51.436;6.972;2023-04-16T05:17:17;8.60;99.90
2012;DHT22;1009;51.436;6.972;2023-04-16T05:19:43;8.60;99.90
2012;DHT22;1009;51.436;6.972;2023-04-16T05:22:11;8.60;99.90
2012;DHT22;1009;51.436;6.972;2023-04-16T05:24:38;8.70;99.90
2012;DHT22;1009;51.436;6.972;2023-04-16T05:27:05;8.70;99.90
2012;DHT22;1009;51.436;6.972;2023-04-16T05:29:32;8.70;99.90
2012;DHT22;1009;51.436;6.972;2023-04-16T05:31:58;8.70;99.90
2012;DHT22;1009;51.436;6.972;2023-04-16T05:34:26;8.70;99.90
2012;DHT22;1009;51.436;6.972;2023-04-16T05:36:52;8.70;99.90
2012;DHT22;1009;51.436;6.972;2023-04-16T05:39:21;8.70;99.90
2012;DHT22;1009;51.436;6.972;2023-04-16T05:41:47;8.70;99.90
2012;DHT22;1009;51.436;6.972;2023-04-16T05:44:14;8.70;99.90
2012;DHT22;1009;51.436;6.972;2023-04-16T05:46:41;8.70;99.90
2012;DHT22;1009;51.436;6.972;2023-04-16T05:49:07;8.80;99.90
2012;DHT22;1009;51.436;6.972;2023-04-16T05:51:34;8.70;99.90
2012;DHT22;1009;51.436;6.972;2023-04-16T05:54:01;8.70;99.90
2012;DHT22;1009;51.436;6.972;2023-04-16T05:56:29;8.80;99.90
2012;DHT22;1009;51.436;6.972;2023-04-16T05:58:56;8.90;99.90
2012;DHT22;1009;51.436;6.972;2023-04-16T06:01:22;8.90;99.90
2012;DHT22;1009;51.436;6.972;2023-04-16T06:03:49;8.90;99.90
2012;DHT22;1009;51.436;6.972;2023-04-16T06:06:16;8.90;99.90
2012;DHT22;1009;51.436;6.972;2023-04-16T06:08:42;8.90;99.90
2012;DHT22;1009;51.436;6.972;2023-04-16T06:11:09;8.90;99.90
2012;DHT22;1009;51.436;6.972;2023-04-16T06:13:38;8.90;99.90
2012;DHT22;1009;51.436;6.972;2023-04-16T06:16:05;8.90;99.90
2012;DHT22;1009;51.436;6.972;2023-04-16T06:18:32;8.90;99.90
2012;DHT22;1009;51.436;6.972;2023-04-16T06:20:59;8.80;99.90
2012;DHT22;1009;51.436;6.972;2023-04-16T06:23:25;8.80;99.90
2012;DHT22;1009;51.436;6.972;2023-04-16T06:25:52;8.80;99.90
2012;DHT22;1009;51.436;6.972;2023-04-16T06:28:19;8.80;99.90
2012;DHT22;1009;51.436;6.972;2023-04-16T06:30:47;8.80;99.90
2012;DHT22;1009;51.436;6.972;2023-04-16T06:33:14;8.80;99.90
2012;DHT22;1009;51.436;6.972;2023-04-16T06:35:41;8.80;99.90
2012;DHT22;1009;51.436;6.972;2023-04-16T06:38:07;8.80;99.90
2012;DHT22;1009;51.436;6.972;2023-04-16T06:40:34;8.80;99.90
2012;DHT22;1009;51.436;6.972;2023-04-16T06:43:02;8.80;99.90
2012;DHT22;1009;51.436;6.972;2023-04-16T06:45:28;8.90;99.90
2012;DHT22;1009;51.436;6.972;2023-04-16T06:47:56;8.90;99.90
2012;DHT22;1009;51.436;6.972;2023-04-16T06:50:24;8.80;99.90
2012;DHT22;1009;51.436;6.972;2023-04-16T06:52:52;8.90;99.90
2012;DHT22;1009;51.436;6.972;2023-04-16T06:55:19;8.90;99.90
2012;DHT22;1009;51.436;6.972;2023-04-16T06:57:46;8.80;99.90
2012;DHT22;1009;51.436;6.972;2023-04-16T07:00:13;8.90;99.90
2012;DHT22;1009;51.436;6.972;2023-04-16T07:02:40;8.90;99.90
2012;DHT22;1009;51.436;6.972;2023-04-16T07:05:08;9.00;99.90
2012;DHT22;1009;51.436;6.972;2023-04-16T07:07:35;9.00;99.90
2012;DHT22;1009;51.436;6.972;2023-04-16T07:10:02;9.00;99.90
2012;DHT22;1009;51.436;6.972;2023-04-16T07:12:30;9.00;99.90
2012;DHT22;1009;51.436;6.972;2023-04-16T07:14:57;9.00;99.90
2012;DHT22;1009;51.436;6.972;2023-04-16T07:17:24;9.10;99.90
2012;DHT22;1009;51.436;6.972;2023-04-16T07:19:51;9.10;99.90
2012;DHT22;1009;51.436;6.972;2023-04-16T07:22:19;9.10;99.90
2012;DHT22;1009;51.436;6.972;2023-04-16T07:24:46;9.10;99.90
2012;DHT22;1009;51.436;6.972;2023-04-16T07:27:13;9.10;99.90
2012;DHT22;1009;51.436;6.972;2023-04-16T07:29:39;9.10;99.90
2012;DHT22;1009;51.436;6.972;2023-04-16T07:32:07;9.20;99.90
2012;DHT22;1009;51.436;6.972;2023-04-16T07:34:33;9.20;99.90
2012;DHT22;1009;51.436;6.972;2023-04-16T07:37:00;9.20;99.90
2012;DHT22;1009;51.436;6.972;2023-04-16T07:39:28;9.30;99.90
2012;DHT22;1009;51.436;6.972;2023-04-16T07:41:55;9.30;99.90
2012;DHT22;1009;51.436;6.972;2023-04-16T07:44:22;9.30;99.90
2012;DHT22;1009;51.436;6.972;2023-04-16T07:46:48;9.30;99.90
2012;DHT22;1009;51.436;6.972;2023-04-16T07:49:15;9.30;99.90
2012;DHT22;1009;51.436;6.972;2023-04-16T07:51:42;9.30;99.90
2012;DHT22;1009;51.436;6.972;2023-04-16T07:54:09;9.30;99.90
2012;DHT22;1009;51.436;6.972;2023-04-16T07:56:37;9.40;99.90
2012;DHT22;1009;51.436;6.972;2023-04-16T07:59:04;9.50;99.90
2012;DHT22;1009;51.436;6.972;2023-04-16T08:01:31;9.60;99.90
2012;DHT22;1009;51.436;6.972;2023-04-16T08:03:58;9.60;99.90
2012;DHT22;1009;51.436;6.972;2023-04-16T08:06:24;9.70;99.90
2012;DHT22;1009;51.436;6.972;2023-04-16T08:08:52;9.70;99.90
2012;DHT22;1009;51.436;6.972;2023-04-16T08:11:19;9.70;99.90
2012;DHT22;1009;51.436;6.972;2023-04-16T08:13:47;9.80;99.90
2012;DHT22;1009;51.436;6.972;2023-04-16T08:16:14;9.80;99.90
2012;DHT22;1009;51.436;6.972;2023-04-16T08:18:40;9.90;99.90
2012;DHT22;1009;51.436;6.972;2023-04-16T08:21:07;9.90;99.90
2012;DHT22;1009;51.436;6.972;2023-04-16T08:23:34;9.90;99.90
2012;DHT22;1009;51.436;6.972;2023-04-16T08:26:01;9.90;99.90
2012;DHT22;1009;51.436;6.972;2023-04-16T08:28:28;10.00;99.90
2012;DHT22;1009;51.436;6.972;2023-04-16T08:30:56;10.00;99.90
2012;DHT22;1009;51.436;6.972;2023-04-16T08:33:23;10.00;99.90
2012;DHT22;1009;51.436;6.972;2023-04-16T08:35:49;10.00;99.90
2012;DHT22;1009;51.436;6.972;2023-04-16T08:38:16;10.00;99.90
2012;DHT22;1009;51.436;6.972;2023-04-16T08:40:44;10.10;99.90
2012;DHT22;1009;51.436;6.972;2023-04-16T08:43:12;10.10;99.90
2012;DHT22;1009;51.436;6.972;2023-04-16T08:45:40;10.20;99.90
2012;DHT22;1009;51.436;6.972;2023-04-16T08:48:10;10.20;99.90
2012;DHT22;1009;51.436;6.972;2023-04-16T08:50:37;10.20;99.90
2012;DHT22;1009;51.436;6.972;2023-04-16T08:53:06;10.10;99.90
2012;DHT22;1009;51.436;6.972;2023-04-16T08:55:37;10.30;99.90
2012;DHT22;1009;51.436;6.972;2023-04-16T08:58:08;10.40;99.90
2012;DHT22;1009;51.436;6.972;2023-04-16T09:00:37;10.40;99.90
2012;DHT22;1009;51.436;6.972;2023-04-16T09:03:05;10.50;99.90
2012;DHT22;1009;51.436;6.972;2023-04-16T09:05:34;10.50;99.90
2012;DHT22;1009;51.436;6.972;2023-04-16T09:08:01;10.60;99.90
2012;DHT22;1009;51.436;6.972;2023-04-16T09:10:28;10.60;99.90
2012;DHT22;1009;51.436;6.972;2023-04-16T09:12:55;10.60;99.90
2012;DHT22;1009;51.436;6.972;2023-04-16T09:15:22;10.60;99.90
2012;DHT22;1009;51.436;6.972;2023-04-16T09:17:49;10.60;99.90
2012;DHT22;1009;51.436;6.972;2023-04-16T09:20:16;10.70;99.90
2012;DHT22;1009;51.436;6.972;2023-04-16T09:22:45;10.70;99.90
2012;DHT22;1009;51.436;6.972;2023-04-16T09:25:12;10.60;99.90
2012;DHT22;1009;51.436;6.972;2023-04-16T09:27:39;10.60;99.90
2012;DHT22;1009;51.436;6.972;2023-04-16T09:30:18;10.60;99.90
2012;DHT22;1009;51.436;6.972;2023-04-16T09:32:46;10.70;99.90
2012;DHT22;1009;51.436;6.972;2023-04-16T09:35:13;10.70;99.90
2012;DHT22;1009;51.436;6.972;2023-04-16T09:37:41;10.80;99.90
2012;DHT22;1009;51.436;6.972;2023-04-16T09:40:09;10.90;99.90
2012;DHT22;1009;51.436;6.972;2023-04-16T09:42:36;10.80;99.90
2012;DHT22;1009;51.436;6.972;2023-04-16T09:45:04;10.80;99.90
2012;DHT22;1009;51.436;6.972;2023-04-16T09:47:38;10.90;99.90
2012;DHT22;1009;51.436;6.972;2023-04-16T09:50:06;11.00;99.90
2012;DHT22;1009;51.436;6.972;2023-04-16T09:52:35;11.00;99.90
2012;DHT22;1009;51.436;6.972;2023-04-16T09:55:02;11.10;99.90
2012;DHT22;1009;51.436;6.972;2023-04-16T09:57:49;11.00;99.90
2012;DHT22;1009;51.436;6.972;2023-04-16T10:00:23;11.00;99.90
2012;DHT22;1009;51.436;6.972;2023-04-16T10:03:02;11.00;99.90
2012;DHT22;1009;51.436;6.972;2023-04-16T10:05:29;11.00;99.90
2012;DHT22;1009;51.436;6.972;2023-04-16T10:07:59;11.10;99.90
2012;DHT22;1009;51.436;6.972;2023-04-16T10:10:26;11.20;99.90
2012;DHT22;1009;51.436;6.972;2023-04-16T10:12:54;11.20;99.90
2012;DHT22;1009;51.436;6.972;2023-04-16T10:15:22;11.40;99.90
2012;DHT22;1009;51.436;6.972;2023-04-16T10:17:50;11.40;99.90
2012;DHT22;1009;51.436;6.972;2023-04-16T10:20:17;11.40;99.90
2012;DHT22;1009;51.436;6.972;2023-04-16T10:22:44;11.50;99.90
2012;DHT22;1009;51.436;6.972;2023-04-16T10:25:12;11.50;99.90
2012;DHT22;1009;51.436;6.972;2023-04-16T10:27:39;11.50;99.90
2012;DHT22;1009;51.436;6.972;2023-04-16T10:30:10;11.60;99.90
2012;DHT22;1009;51.436;6.972;2023-04-16T10:32:37;11.60;99.90
2012;DHT22;1009;51.436;6.972;2023-04-16T10:35:05;11.70;99.90
2012;DHT22;1009;51.436;6.972;2023-04-16T10:37:32;11.70;99.90
2012;DHT22;1009;51.436;6.972;2023-04-16T10:39:59;11.70;99.90
2012;DHT22;1009;51.436;6.972;2023-04-16T10:42:26;11.70;99.90
2012;DHT22;1009;51.436;6.972;2023-04-16T10:44:53;11.70;99.90
2012;DHT22;1009;51.436;6.972;2023-04-16T10:47:23;11.90;99.90
2012;DHT22;1009;51.436;6.972;2023-04-16T10:49:51;11.90;99.90
2012;DHT22;1009;51.436;6.972;2023-04-16T10:52:18;12.10;99.90
2012;DHT22;1009;51.436;6.972;2023-04-16T10:54:46;12.20;99.90
2012;DHT22;1009;51.436;6.972;2023-04-16T10:57:16;12.10;99.90
2012;DHT22;1009;51.436;6.972;2023-04-16T10:59:43;12.10;99.90
2012;DHT22;1009;51.436;6.972;2023-04-16T11:02:13;12.00;99.90
2012;DHT22;1009;51.436;6.972;2023-04-16T11:04:43;12.10;99.90
2012;DHT22;1009;51.436;6.972;2023-04-16T11:07:18;12.10;99.90
2012;DHT22;1009;51.436;6.972;2023-04-16T11:09:48;12.00;99.90
2012;DHT22;1009;51.436;6.972;2023-04-16T11:12:17;12.00;99.90
2012;DHT22;1009;51.436;6.972;2023-04-16T11:14:47;12.20;99.90
2012;DHT22;1009;51.436;6.972;2023-04-16T11:17:15;12.20;99.90
2012;DHT22;1009;51.436;6.972;2023-04-16T11:19:43;12.10;99.90
2012;DHT22;1009;51.436;6.972;2023-04-16T11:22:12;12.30;99.90
2012;DHT22;1009;51.436;6.972;2023-04-16T11:24:41;12.50;99.90
2012;DHT22;1009;51.436;6.972;2023-04-16T11:27:08;12.60;99.90
2012;DHT22;1009;51.436;6.972;2023-04-16T11:29:35;12.90;99.90
2012;DHT22;1009;51.436;6.972;2023-04-16T11:32:02;13.00;99.90
2012;DHT22;1009;51.436;6.972;2023-04-16T11:34:31;13.00;99.90
2012;DHT22;1009;51.436;6.972;2023-04-16T11:36:59;13.00;99.90
2012;DHT22;1009;51.436;6.972;2023-04-16T11:39:26;13.00;99.90
2012;DHT22;1009;51.436;6.972;2023-04-16T11:41:52;12.90;99.90
2012;DHT22;1009;51.436;6.972;2023-04-16T11:44:21;12.70;99.90
2012;DHT22;1009;51.436;6.972;2023-04-16T11:46:48;12.60;99.90
2012;DHT22;1009;51.436;6.972;2023-04-16T11:49:15;12.60;99.90
2012;DHT22;1009;51.436;6.972;2023-04-16T11:51:43;12.60;99.90
2012;DHT22;1009;51.436;6.972;2023-04-16T11:54:19;12.80;99.90
2012;DHT22;1009;51.436;6.972;2023-04-16T11:56:46;12.80;99.90
2012;DHT22;1009;51.436;6.972;2023-04-16T11:59:15;12.80;99.90
2012;DHT22;1009;51.436;6.972;2023-04-16T12:01:46;12.90;99.90
2012;DHT22;1009;51.436;6.972;2023-04-16T12:04:13;12.70;99.90
2012;DHT22;1009;51.436;6.972;2023-04-16T12:06:40;12.50;99.90
2012;DHT22;1009;51.436;6.972;2023-04-16T12:09:24;12.60;99.90
2012;DHT22;1009;51.436;6.972;2023-04-16T12:11:52;12.60;99.90
2012;DHT22;1009;51.436;6.972;2023-04-16T12:14:18;12.60;99.90
2012;DHT22;1009;51.436;6.972;2023-04-16T12:16:45;12.70;99.90
2012;DHT22;1009;51.436;6.972;2023-04-16T12:19:12;12.90;99.90
2012;DHT22;1009;51.436;6.972;2023-04-16T12:21:40;12.90;99.90
2012;DHT22;1009;51.436;6.972;2023-04-16T12:24:08;12.90;99.90
2012;DHT22;1009;51.436;6.972;2023-04-16T12:26:39;13.10;99.90
2012;DHT22;1009;51.436;6.972;2023-04-16T12:29:17;13.10;99.90
2012;DHT22;1009;51.436;6.972;2023-04-16T12:31:45;13.00;99.90
2012;DHT22;1009;51.436;6.972;2023-04-16T12:34:12;13.10;99.90
2012;DHT22;1009;51.436;6.972;2023-04-16T12:36:39;13.10;99.90
2012;DHT22;1009;51.436;6.972;2023-04-16T12:39:06;13.10;99.90
2012;DHT22;1009;51.436;6.972;2023-04-16T12:41:36;13.00;99.90
2012;DHT22;1009;51.436;6.972;2023-04-16T12:44:06;13.00;99.90
2012;DHT22;1009;51.436;6.972;2023-04-16T12:46:36;13.00;99.90
2012;DHT22;1009;51.436;6.972;2023-04-16T12:49:03;12.90;99.90
2012;DHT22;1009;51.436;6.972;2023-04-16T12:51:31;12.90;99.90
2012;DHT22;1009;51.436;6.972;2023-04-16T12:53:58;12.90;99.90
2012;DHT22;1009;51.436;6.972;2023-04-16T12:56:25;12.90;99.90
2012;DHT22;1009;51.436;6.972;2023-04-16T12:58:51;12.90;99.90
2012;DHT22;1009;51.436;6.972;2023-04-16T13:01:20;13.00;99.90
2012;DHT22;1009;51.436;6.972;2023-04-16T13:03:46;13.00;99.90
2012;DHT22;1009;51.436;6.972;2023-04-16T13:06:14;12.90;99.90
2012;DHT22;1009;51.436;6.972;2023-04-16T13:08:42;12.90;99.90
2012;DHT22;1009;51.436;6.972;2023-04-16T13:11:09;12.90;99.90
2012;DHT22;1009;51.436;6.972;2023-04-16T13:13:36;12.80;99.90
2012;DHT22;1009;51.436;6.972;2023-04-16T13:16:04;12.80;99.90
2012;DHT22;1009;51.436;6.972;2023-04-16T13:18:35;12.80;99.90
2012;DHT22;1009;51.436;6.972;2023-04-16T13:21:02;12.80;99.90
2012;DHT22;1009;51.436;6.972;2023-04-16T13:23:29;12.90;99.90
2012;DHT22;1009;51.436;6.972;2023-04-16T13:25:56;13.00;99.90
2012;DHT22;1009;51.436;6.972;2023-04-16T13:28:23;13.00;99.90
2012;DHT22;1009;51.436;6.972;2023-04-16T13:30:50;13.00;99.90
2012;DHT22;1009;51.436;6.972;2023-04-16T13:33:17;13.00;99.90
2012;DHT22;1009;51.436;6.972;2023-04-16T13:35:46;13.00;99.90
2012;DHT22;1009;51.436;6.972;2023-04-16T13:38:13;12.90;99.90
2012;DHT22;1009;51.436;6.972;2023-04-16T13:40:40;12.90;99.90
2012;DHT22;1009;51.436;6.972;2023-04-16T13:43:07;12.90;99.90
2012;DHT22;1009;51.436;6.972;2023-04-16T13:45:36;13.00;99.90
2012;DHT22;1009;51.436;6.972;2023-04-16T13:48:03;13.30;99.90
2012;DHT22;1009;51.436;6.972;2023-04-16T13:50:30;13.40;99.90
2012;DHT22;1009;51.436;6.972;2023-04-16T13:52:58;13.50;99.90
2012;DHT22;1009;51.436;6.972;2023-04-16T13:55:25;13.50;99.90
2012;DHT22;1009;51.436;6.972;2023-04-16T13:57:52;13.60;99.90
2012;DHT22;1009;51.436;6.972;2023-04-16T14:00:20;13.80;99.90
2012;DHT22;1009;51.436;6.972;2023-04-16T14:02:47;13.70;99.90
2012;DHT22;1009;51.436;6.972;2023-04-16T14:05:14;13.80;99.90
2012;DHT22;1009;51.436;6.972;2023-04-16T14:07:41;13.80;99.90
2012;DHT22;1009;51.436;6.972;2023-04-16T14:10:09;13.80;99.90
2012;DHT22;1009;51.436;6.972;2023-04-16T14:12:37;13.60;99.90
2012;DHT22;1009;51.436;6.972;2023-04-16T14:15:04;13.50;99.90
2012;DHT22;1009;51.436;6.972;2023-04-16T14:17:33;13.60;99.90
2012;DHT22;1009;51.436;6.972;2023-04-16T14:20:00;13.60;99.90
2012;DHT22;1009;51.436;6.972;2023-04-16T14:22:27;13.60;99.90
2012;DHT22;1009;51.436;6.972;2023-04-16T14:24:54;13.50;99.90
2012;DHT22;1009;51.436;6.972;2023-04-16T14:27:22;13.50;99.90
2012;DHT22;1009;51.436;6.972;2023-04-16T14:29:48;13.60;99.90
2012;DHT22;1009;51.436;6.972;2023-04-16T14:32:15;13.70;99.90
2012;DHT22;1009;51.436;6.972;2023-04-16T14:34:42;13.70;99.90
2012;DHT22;1009;51.436;6.972;2023-04-16T14:37:08;13.80;99.90
2012;DHT22;1009;51.436;6.972;2023-04-16T14:39:35;13.70;99.90
2012;DHT22;1009;51.436;6.972;2023-04-16T14:42:03;13.60;99.90
2012;DHT22;1009;51.436;6.972;2023-04-16T14:44:32;13.50;99.90
2012;DHT22;1009;51.436;6.972;2023-04-16T14:46:58;13.50;99.90
2012;DHT22;1009;51.436;6.972;2023-04-16T14:49:25;13.50;99.90
2012;DHT22;1009;51.436;6.972;2023-04-16T14:51:52;13.60;99.90
2012;DHT22;1009;51.436;6.972;2023-04-16T14:54:18;13.70;99.90
2012;DHT22;1009;51.436;6.972;2023-04-16T14:56:45;13.90;99.90
2012;DHT22;1009;51.436;6.972;2023-04-16T14:59:12;13.90;99.90
2012;DHT22;1009;51.436;6.972;2023-04-16T15:01:41;14.00;99.90
2012;DHT22;1009;51.436;6.972;2023-04-16T15:04:08;14.10;99.90
2012;DHT22;1009;51.436;6.972;2023-04-16T15:06:35;14.20;99.90
2012;DHT22;1009;51.436;6.972;2023-04-16T15:09:01;14.10;99.90
2012;DHT22;1009;51.436;6.972;2023-04-16T15:11:28;14.20;99.90
2012;DHT22;1009;51.436;6.972;2023-04-16T15:13:55;14.30;99.90
2012;DHT22;1009;51.436;6.972;2023-04-16T15:16:22;14.40;99.90
2012;DHT22;1009;51.436;6.972;2023-04-16T15:18:50;14.50;99.90
2012;DHT22;1009;51.436;6.972;2023-04-16T15:21:17;14.90;99.90
2012;DHT22;1009;51.436;6.972;2023-04-16T15:23:44;15.30;99.90
2012;DHT22;1009;51.436;6.972;2023-04-16T15:26:10;15.30;99.90
2012;DHT22;1009;51.436;6.972;2023-04-16T15:28:37;15.30;99.90
2012;DHT22;1009;51.436;6.972;2023-04-16T15:31:04;15.10;99.90
2012;DHT22;1009;51.436;6.972;2023-04-16T15:33:30;14.70;99.90
2012;DHT22;1009;51.436;6.972;2023-04-16T15:35:59;14.60;99.90
2012;DHT22;1009;51.436;6.972;2023-04-16T15:38:25;14.70;99.90
2012;DHT22;1009;51.436;6.972;2023-04-16T15:40:54;15.00;99.90
2012;DHT22;1009;51.436;6.972;2023-04-16T15:43:25;15.50;99.90
2012;DHT22;1009;51.436;6.972;2023-04-16T15:45:52;15.70;99.90
2012;DHT22;1009;51.436;6.972;2023-04-16T15:48:19;15.80;99.90
2012;DHT22;1009;51.436;6.972;2023-04-16T15:50:46;15.70;99.90
2012;DHT22;1009;51.436;6.972;2023-04-16T15:53:14;15.20;99.90
2012;DHT22;1009;51.436;6.972;2023-04-16T15:55:41;14.90;99.90
2012;DHT22;1009;51.436;6.972;2023-04-16T15:58:08;14.50;99.90
2012;DHT22;1009;51.436;6.972;2023-04-16T16:00:35;14.30;99.90
2012;DHT22;1009;51.436;6.972;2023-04-16T16:03:02;14.20;99.90
2012;DHT22;1009;51.436;6.972;2023-04-16T16:05:28;14.10;99.90
2012;DHT22;1009;51.436;6.972;2023-04-16T16:07:56;14.10;99.90
2012;DHT22;1009;51.436;6.972;2023-04-16T16:10:24;14.00;99.90